Time;durP1;ratioP1;P1;durP2;ratioP2;P2;SDS_P1;SDS_P2;PMS_P1;PMS_P2;Temp;Humidity;BMP_temperature;BMP_pressure;BME280_temperature;BME280_humidity;BME280_pressure;Samples;Min_cycle;Max_cycle;Signal;HPM_P1;HPM_P2
2022/01/26 00:07:10;;;;;;;10.53;6.50;;;2.30;68.20;;;;;;5020220;28;20033;-82
2022/01/26 00:09:36;;;;;;;9.70;6.20;;;2.30;68.30;;;;;;5021886;28;20404;-81
2022/01/26 00:12:02;;;;;;;11.20;6.43;;;2.30;68.50;;;;;;5026336;28;20025;-81
2022/01/26 00:14:28;;;;;;;17.57;10.50;;;2.40;68.90;;;;;;5026393;28;20030;-82
2022/01/26 00:16:53;;;;;;;17.27;10.03;;;2.40;68.20;;;;;;5027497;28;20469;-81
2022/01/26 00:19:27;;;;;;;12.37;7.93;;;2.40;68.40;;;;;;5029098;28;20111;-82
2022/01/26 00:21:54;;;;;;;10.37;5.93;;;2.30;68.20;;;;;;5022750;28;20121;-82
2022/01/26 00:24:38;;;;;;;10.37;6.50;;;2.40;68.10;;;;;;5021041;28;20119;-82
2022/01/26 00:27:21;;;;;;;8.30;5.50;;;2.30;67.90;;;;;;5020817;28;20030;-82
2022/01/26 00:29:49;;;;;;;6.03;3.77;;;2.20;68.00;;;;;;5022765;28;20030;-82
2022/01/26 00:40:39;;;;;;;5.80;2.87;;;2.30;67.90;;;;;;5020042;28;20068;-82
2022/01/26 00:43:26;;;;;;;5.18;3.10;;;2.30;68.00;;;;;;5021306;28;20029;-82
2022/01/26 00:45:56;;;;;;;4.80;2.73;;;2.30;68.10;;;;;;5024399;28;20073;-82
2022/01/26 00:48:23;;;;;;;5.60;2.40;;;2.30;67.90;;;;;;5028058;28;20128;-82
2022/01/26 00:50:50;;;;;;;7.30;3.93;;;2.40;67.80;;;;;;5016082;28;20133;-82
2022/01/26 00:53:17;;;;;;;5.13;3.03;;;2.40;67.80;;;;;;5022051;28;20029;-82
2022/01/26 00:55:42;;;;;;;7.47;3.07;;;2.30;67.70;;;;;;5018313;28;20025;-82
2022/01/26 00:58:08;;;;;;;4.60;2.93;;;2.40;68.10;;;;;;5026776;28;20029;-82
2022/01/26 01:00:34;;;;;;;5.43;3.40;;;2.40;67.90;;;;;;5021243;28;20036;-82
2022/01/26 01:03:01;;;;;;;4.20;3.10;;;2.40;68.00;;;;;;5025839;28;20017;-82
2022/01/26 01:05:40;;;;;;;4.87;3.10;;;2.40;68.00;;;;;;5019131;28;20444;-81
2022/01/26 01:08:11;;;;;;;5.27;3.00;;;2.30;68.00;;;;;;5023422;28;20032;-81
2022/01/26 01:10:39;;;;;;;4.80;2.73;;;2.30;68.00;;;;;;5019070;28;20365;-81
2022/01/26 01:13:07;;;;;;;4.83;2.40;;;2.30;67.90;;;;;;5022705;28;20029;-81
2022/01/26 01:15:33;;;;;;;6.13;2.90;;;2.20;68.00;;;;;;5025026;28;20420;-81
2022/01/26 01:18:39;;;;;;;4.13;2.90;;;2.20;68.20;;;;;;5025308;28;20028;-81
2022/01/26 01:21:37;;;;;;;3.80;2.57;;;2.10;68.10;;;;;;5021793;28;20052;-81
2022/01/26 01:31:47;;;;;;;5.37;3.53;;;2.00;68.30;;;;;;5026257;28;20107;-82
2022/01/26 01:34:17;;;;;;;7.03;3.00;;;2.00;68.30;;;;;;5026517;28;20492;-82
2022/01/26 01:36:46;;;;;;;4.93;3.07;;;2.00;68.20;;;;;;5029149;28;20041;-82
2022/01/26 01:39:13;;;;;;;5.57;3.40;;;2.00;68.20;;;;;;5021210;28;20033;-82
2022/01/26 01:41:41;;;;;;;7.37;3.87;;;2.10;68.20;;;;;;5029436;28;20087;-82
2022/01/26 01:44:08;;;;;;;5.00;2.60;;;2.10;68.20;;;;;;5029594;28;20369;-82
2022/01/26 01:46:34;;;;;;;6.07;3.17;;;2.10;68.50;;;;;;5028091;28;20129;-81
2022/01/26 01:49:02;;;;;;;6.13;3.23;;;2.10;68.20;;;;;;5029287;28;20150;-81
2022/01/26 01:51:33;;;;;;;4.00;2.67;;;2.10;68.40;;;;;;5025804;28;20416;-82
2022/01/26 01:53:58;;;;;;;5.33;3.00;;;2.10;68.30;;;;;;5017101;28;20099;-82
2022/01/26 01:56:26;;;;;;;3.67;2.20;;;2.10;68.40;;;;;;5026381;28;20038;-82
2022/01/26 01:58:54;;;;;;;5.40;2.77;;;2.10;68.50;;;;;;5025794;28;20784;-81
2022/01/26 02:01:20;;;;;;;4.20;2.80;;;2.10;68.40;;;;;;5033120;28;20078;-82
2022/01/26 02:03:46;;;;;;;5.80;3.33;;;2.00;68.10;;;;;;5015877;28;20518;-81
2022/01/26 02:06:12;;;;;;;4.33;2.73;;;2.00;68.40;;;;;;5014285;28;20105;-82
2022/01/26 02:08:41;;;;;;;24.70;3.50;;;2.10;68.90;;;;;;5022170;28;20037;-81
2022/01/26 02:11:09;;;;;;;4.00;2.50;;;2.00;68.60;;;;;;5025441;28;20025;-81
2022/01/26 02:13:44;;;;;;;4.27;2.53;;;2.10;69.50;;;;;;5029151;28;20028;-81
2022/01/26 02:18:52;;;;;;;6.63;4.10;;;2.30;68.50;;;;;;5024640;28;20421;-81
2022/01/26 02:21:39;;;;;;;7.23;4.23;;;2.20;68.80;;;;;;5023038;28;20014;-81
2022/01/26 02:49:34;;;;;;;11.63;6.50;;;2.50;69.10;;;;;;5024360;28;20108;-81
2022/01/26 03:02:09;;;;;;;10.97;7.17;;;2.60;69.50;;;;;;5021883;28;20421;-81
2022/01/26 03:04:48;;;;;;;14.50;6.45;;;2.50;70.20;;;;;;5017850;28;20073;-81
2022/01/26 03:07:22;;;;;;;8.60;5.83;;;2.50;70.40;;;;;;5043663;28;20050;-81
2022/01/26 03:09:58;;;;;;;10.37;6.10;;;2.70;70.70;;;;;;5022969;28;20535;-81
2022/01/26 03:12:33;;;;;;;7.80;4.17;;;2.70;70.50;;;;;;5026760;28;20064;-81
2022/01/26 03:15:08;;;;;;;6.83;4.17;;;2.70;69.70;;;;;;5022732;28;20504;-81
2022/01/26 03:20:18;;;;;;;7.17;3.53;;;2.50;69.70;;;;;;5024670;28;20037;-81
2022/01/26 03:28:23;;;;;;;6.03;4.27;;;2.50;70.40;;;;;;5023879;28;20071;-81
2022/01/26 03:35:58;;;;;;;9.37;6.40;;;2.50;70.20;;;;;;5023536;28;20034;-81
2022/01/26 03:38:30;;;;;;;10.83;6.00;;;2.60;70.10;;;;;;5017875;28;20017;-81
2022/01/26 03:41:28;;;;;;;9.87;5.60;;;2.70;70.60;;;;;;5019845;28;20407;-81
2022/01/26 03:43:54;;;;;;;5.97;3.90;;;2.60;69.80;;;;;;5021103;28;20027;-81
2022/01/26 03:46:20;;;;;;;8.23;4.67;;;2.60;69.80;;;;;;5006625;28;20436;-81
2022/01/26 03:48:46;;;;;;;7.40;4.30;;;2.60;69.70;;;;;;5022742;28;20411;-81
2022/01/26 03:51:11;;;;;;;8.53;5.47;;;2.60;69.40;;;;;;5020201;28;20025;-81
2022/01/26 03:53:37;;;;;;;10.23;6.17;;;2.60;69.50;;;;;;5019708;28;20061;-81
2022/01/26 03:56:03;;;;;;;8.00;5.40;;;2.60;69.50;;;;;;5018651;28;20079;-81
2022/01/26 03:58:29;;;;;;;10.00;6.40;;;2.50;69.30;;;;;;5019894;28;20037;-81
2022/01/26 04:00:54;;;;;;;11.20;6.60;;;2.40;69.30;;;;;;5019561;28;20099;-81
2022/01/26 04:03:20;;;;;;;13.47;7.10;;;2.30;69.60;;;;;;5019456;28;20045;-81
2022/01/26 04:05:46;;;;;;;15.93;7.40;;;2.30;69.70;;;;;;5020415;28;20100;-81
2022/01/26 04:08:18;;;;;;;13.63;8.20;;;2.30;69.70;;;;;;5022624;28;20033;-81
2022/01/26 04:13:18;;;;;;;12.27;7.67;;;2.40;69.50;;;;;;5028278;28;20118;-81
2022/01/26 04:15:44;;;;;;;8.33;5.70;;;2.50;69.40;;;;;;5021155;28;20104;-81
2022/01/26 04:18:15;;;;;;;9.33;6.67;;;2.50;69.60;;;;;;5012717;28;20026;-82
2022/01/26 04:20:45;;;;;;;13.80;8.07;;;2.50;69.20;;;;;;5026963;28;20064;-81
2022/01/26 04:23:24;;;;;;;13.50;8.10;;;2.40;69.00;;;;;;5010584;28;20034;-81
2022/01/26 04:25:51;;;;;;;13.77;8.17;;;2.40;68.90;;;;;;5027144;28;20030;-81
2022/01/26 04:28:23;;;;;;;16.70;10.47;;;2.30;68.80;;;;;;5022374;28;20037;-81
2022/01/26 04:30:50;;;;;;;13.77;9.90;;;2.30;68.70;;;;;;5028872;28;20472;-81
2022/01/26 04:33:16;;;;;;;18.17;11.37;;;2.20;68.60;;;;;;5016079;28;20037;-81
2022/01/26 04:35:45;;;;;;;17.50;11.60;;;2.20;68.50;;;;;;5021413;28;20104;-81
2022/01/26 04:38:22;;;;;;;16.53;11.00;;;2.10;68.50;;;;;;5025052;28;20385;-81
2022/01/26 04:43:37;;;;;;;18.10;11.87;;;1.90;68.60;;;;;;5016998;28;20025;-81
2022/01/26 04:46:02;;;;;;;19.87;12.07;;;1.80;68.70;;;;;;5017355;28;20046;-81
2022/01/26 04:48:28;;;;;;;16.67;11.13;;;1.90;68.80;;;;;;5026983;28;20040;-81
2022/01/26 04:50:54;;;;;;;18.20;11.57;;;1.80;68.60;;;;;;5022963;28;20049;-81
2022/01/26 04:53:20;;;;;;;14.00;9.57;;;1.80;68.80;;;;;;5025637;28;20417;-82
2022/01/26 04:55:46;;;;;;;13.37;9.63;;;1.80;68.60;;;;;;5030448;28;20032;-82
2022/01/26 04:58:12;;;;;;;14.87;9.93;;;1.80;68.60;;;;;;5027047;28;20416;-82
2022/01/26 05:00:38;;;;;;;16.03;9.60;;;1.80;68.60;;;;;;5025564;28;20391;-82
2022/01/26 05:03:04;;;;;;;21.53;11.40;;;1.80;68.50;;;;;;5021454;28;20045;-80
2022/01/26 05:05:29;;;;;;;18.27;11.90;;;1.70;68.40;;;;;;5030565;28;20038;-81
2022/01/26 05:07:55;;;;;;;17.37;11.10;;;1.80;68.50;;;;;;5029236;28;20034;-81
2022/01/26 05:10:22;;;;;;;14.47;8.90;;;1.80;68.40;;;;;;5018039;28;20128;-81
2022/01/26 05:12:48;;;;;;;17.43;9.50;;;1.80;68.40;;;;;;5021596;28;20072;-82
2022/01/26 05:15:14;;;;;;;12.60;8.97;;;1.80;68.40;;;;;;5029690;28;20068;-82
2022/01/26 05:17:41;;;;;;;20.23;9.90;;;1.80;68.50;;;;;;5025576;28;20030;-82
2022/01/26 05:20:09;;;;;;;22.20;13.23;;;1.70;68.50;;;;;;5032084;28;20032;-81
2022/01/26 05:22:36;;;;;;;56.67;16.23;;;1.70;68.50;;;;;;5030287;28;20424;-81
2022/01/26 05:25:03;;;;;;;27.83;14.73;;;1.70;68.70;;;;;;5023700;28;20033;-81
2022/01/26 05:27:29;;;;;;;18.57;11.53;;;1.80;69.00;;;;;;5028056;28;20052;-81
2022/01/26 05:29:55;;;;;;;23.40;11.93;;;1.80;68.90;;;;;;5020114;28;20033;-81
2022/01/26 05:32:20;;;;;;;24.40;12.40;;;1.70;69.00;;;;;;5022324;28;20053;-81
2022/01/26 05:34:46;;;;;;;23.97;12.93;;;1.70;69.00;;;;;;5023125;28;20069;-82
2022/01/26 05:37:12;;;;;;;30.17;14.43;;;1.80;69.00;;;;;;5031285;28;20037;-81
2022/01/26 05:39:38;;;;;;;24.73;12.90;;;1.70;68.70;;;;;;5023456;28;20052;-82
2022/01/26 05:42:06;;;;;;;108.83;16.90;;;1.70;68.70;;;;;;5025991;28;20315;-82
2022/01/26 05:44:32;;;;;;;27.30;15.97;;;1.60;68.80;;;;;;5027887;28;20036;-82
2022/01/26 05:46:57;;;;;;;33.23;16.67;;;1.50;68.90;;;;;;5030208;28;20488;-82
2022/01/26 05:49:24;;;;;;;34.60;16.37;;;1.50;69.20;;;;;;5028106;28;20546;-81
2022/01/26 05:51:50;;;;;;;29.70;13.73;;;1.50;69.20;;;;;;5017031;28;20034;-81
2022/01/26 05:54:16;;;;;;;23.87;12.97;;;1.50;69.30;;;;;;5028318;28;20057;-81
2022/01/26 05:56:44;;;;;;;25.90;14.20;;;1.50;69.30;;;;;;5029851;28;20064;-81
2022/01/26 05:59:11;;;;;;;30.77;14.67;;;1.60;69.10;;;;;;5022275;28;20537;-81
2022/01/26 06:01:36;;;;;;;31.83;14.33;;;1.50;69.00;;;;;;5021051;28;20064;-82
2022/01/26 06:04:03;;;;;;;35.87;14.60;;;1.50;69.00;;;;;;5029271;28;20481;-81
2022/01/26 06:06:29;;;;;;;29.23;15.07;;;1.50;68.80;;;;;;5031006;28;20116;-81
2022/01/26 06:08:54;;;;;;;26.00;14.90;;;1.40;69.00;;;;;;5031696;28;20112;-81
2022/01/26 06:11:20;;;;;;;23.37;15.13;;;1.50;69.20;;;;;;5031323;28;20041;-81
2022/01/26 06:13:46;;;;;;;53.30;15.87;;;1.50;69.00;;;;;;5017909;28;20041;-81
2022/01/26 06:16:12;;;;;;;45.67;14.17;;;1.50;69.10;;;;;;5029423;28;20439;-81
2022/01/26 06:18:37;;;;;;;20.70;12.77;;;1.50;69.20;;;;;;5025913;28;20040;-81
2022/01/26 06:21:03;;;;;;;37.97;13.80;;;1.50;69.30;;;;;;5023295;28;20083;-81
2022/01/26 06:23:29;;;;;;;33.63;16.60;;;1.50;69.30;;;;;;5019639;28;20037;-81
2022/01/26 06:25:57;;;;;;;44.37;15.53;;;1.50;69.30;;;;;;5021613;28;20109;-81
2022/01/26 06:28:25;;;;;;;35.93;13.80;;;1.40;69.30;;;;;;5025523;28;20040;-81
2022/01/26 06:31:03;;;;;;;32.13;13.23;;;1.40;69.60;;;;;;5020680;28;20030;-81
2022/01/26 06:33:30;;;;;;;43.97;14.33;;;1.40;70.30;;;;;;5021546;28;20034;-82
2022/01/26 06:35:57;;;;;;;20.70;13.50;;;1.30;69.60;;;;;;5023705;28;20041;-82
2022/01/26 06:38:24;;;;;;;42.07;22.77;;;1.30;69.80;;;;;;5017845;28;20166;-82
2022/01/26 06:40:51;;;;;;;63.27;33.13;;;1.30;69.80;;;;;;5019857;28;20021;-82
2022/01/26 06:43:17;;;;;;;51.03;23.90;;;1.30;69.90;;;;;;5021341;28;20498;-82
2022/01/26 06:45:49;;;;;;;50.70;22.77;;;1.30;69.80;;;;;;5021306;28;20041;-82
2022/01/26 06:50:41;;;;;;;35.80;19.77;;;1.40;69.50;;;;;;5020020;28;20080;-82
2022/01/26 06:53:07;;;;;;;42.97;18.20;;;1.40;69.50;;;;;;5021743;28;20068;-82
2022/01/26 06:55:33;;;;;;;33.17;15.93;;;1.40;69.70;;;;;;5021247;28;20476;-82
2022/01/26 06:57:58;;;;;;;29.50;16.03;;;1.50;69.90;;;;;;5020919;28;20124;-82
2022/01/26 07:00:24;;;;;;;31.70;17.30;;;1.50;69.80;;;;;;5024518;28;20508;-82
2022/01/26 07:02:52;;;;;;;31.13;17.07;;;1.50;69.70;;;;;;5021489;28;20036;-82
2022/01/26 07:05:18;;;;;;;32.43;16.97;;;1.50;69.50;;;;;;5044413;28;20034;-82
2022/01/26 07:07:43;;;;;;;40.50;21.43;;;1.50;69.60;;;;;;5021636;28;20126;-82
2022/01/26 07:10:10;;;;;;;38.33;22.00;;;1.40;69.20;;;;;;5028356;28;20029;-81
2022/01/26 07:12:36;;;;;;;34.43;20.30;;;1.50;69.30;;;;;;5033095;28;20060;-82
2022/01/26 07:23:03;;;;;;;30.73;17.37;;;1.40;68.70;;;;;;5018453;28;20030;-81
2022/01/26 07:25:28;;;;;;;30.87;16.87;;;1.30;68.50;;;;;;5031242;28;20481;-82
2022/01/26 07:27:56;;;;;;;33.57;16.40;;;1.30;68.90;;;;;;5029652;28;20028;-81
2022/01/26 07:30:22;;;;;;;31.77;17.10;;;1.30;69.10;;;;;;5028439;28;20480;-81
2022/01/26 07:32:48;;;;;;;34.00;19.57;;;1.30;69.10;;;;;;5031607;28;20032;-81
2022/01/26 07:35:14;;;;;;;34.97;19.97;;;1.30;69.00;;;;;;5031567;28;20079;-81
2022/01/26 07:37:40;;;;;;;37.37;21.27;;;1.30;69.60;;;;;;5031772;28;20484;-81
2022/01/26 07:40:07;;;;;;;36.20;21.17;;;1.30;69.10;;;;;;5031392;28;20038;-82
2022/01/26 07:42:34;;;;;;;36.57;20.47;;;1.30;69.40;;;;;;5031651;28;20045;-81
2022/01/26 07:45:01;;;;;;;41.17;21.20;;;1.30;68.90;;;;;;5031586;28;20028;-81
2022/01/26 07:47:31;;;;;;;36.23;18.10;;;1.30;68.90;;;;;;5031489;28;20072;-81
2022/01/26 07:49:57;;;;;;;43.37;18.00;;;1.30;68.80;;;;;;5030963;28;20072;-81
2022/01/26 07:52:24;;;;;;;38.40;20.10;;;1.30;69.00;;;;;;5031735;28;20075;-80
2022/01/26 07:54:52;;;;;;;40.93;20.77;;;1.20;69.20;;;;;;5025513;28;20022;-80
2022/01/26 07:57:19;;;;;;;43.00;20.57;;;1.20;69.10;;;;;;5012048;28;20049;-80
2022/01/26 07:59:45;;;;;;;44.40;21.07;;;1.10;69.20;;;;;;5027883;28;20403;-80
2022/01/26 08:02:10;;;;;;;45.73;22.70;;;1.10;69.60;;;;;;5028434;28;20024;-80
2022/01/26 08:04:36;;;;;;;49.97;24.13;;;1.20;69.40;;;;;;5015517;28;20021;-81
2022/01/26 08:07:02;;;;;;;48.70;24.13;;;1.20;69.60;;;;;;5032482;28;20021;-81
2022/01/26 08:09:28;;;;;;;49.10;24.37;;;1.20;69.40;;;;;;5031293;28;20030;-80
2022/01/26 08:11:54;;;;;;;46.10;22.80;;;1.20;69.40;;;;;;5029830;28;20035;-81
2022/01/26 08:14:19;;;;;;;45.13;21.97;;;1.20;69.10;;;;;;5029128;28;20542;-80
2022/01/26 08:16:45;;;;;;;40.03;19.13;;;1.20;69.20;;;;;;5028987;28;20032;-80
2022/01/26 08:19:16;;;;;;;36.33;19.60;;;1.30;69.00;;;;;;5031095;28;20081;-81
2022/01/26 08:21:42;;;;;;;41.87;20.83;;;1.30;69.30;;;;;;5040713;28;20028;-80
2022/01/26 08:24:15;;;;;;;44.57;21.30;;;1.30;69.00;;;;;;5032104;28;20457;-80
2022/01/26 08:26:46;;;;;;;;;;;1.30;69.20;;;;;;5030970;28;20032;-80
2022/01/26 08:29:17;;;;;;;44.87;23.10;;;1.30;69.20;;;;;;5014835;28;19910;-82
2022/01/26 08:31:43;;;;;;;49.43;25.63;;;1.40;69.30;;;;;;5016998;28;20021;-82
2022/01/26 08:34:09;;;;;;;45.80;24.83;;;1.40;69.50;;;;;;5034553;28;20126;-82
2022/01/26 08:36:35;;;;;;;32.00;19.37;;;1.40;69.30;;;;;;5023542;28;20025;-82
2022/01/26 08:39:00;;;;;;;30.70;17.23;;;1.40;69.30;;;;;;5035192;28;20040;-82
2022/01/26 08:41:27;;;;;;;32.93;17.27;;;1.30;69.10;;;;;;5035099;28;20025;-82
2022/01/26 08:43:53;;;;;;;29.47;17.00;;;1.30;69.10;;;;;;5035212;28;20052;-82
2022/01/26 08:46:18;;;;;;;33.80;19.37;;;1.20;69.30;;;;;;5034852;28;20431;-82
2022/01/26 08:48:44;;;;;;;33.50;18.70;;;1.10;69.60;;;;;;5034848;28;20032;-82
2022/01/26 08:51:10;;;;;;;39.10;21.30;;;1.20;70.00;;;;;;5029431;28;20033;-81
2022/01/26 08:53:36;;;;;;;39.20;23.87;;;1.20;69.70;;;;;;5034887;28;20025;-82
2022/01/26 08:56:01;;;;;;;38.57;24.43;;;1.30;69.70;;;;;;5034467;28;20025;-81
2022/01/26 08:58:27;;;;;;;41.13;24.53;;;1.50;69.60;;;;;;5034163;28;20034;-81
2022/01/26 09:00:54;;;;;;;35.97;22.13;;;1.60;69.30;;;;;;5034339;28;20091;-82
2022/01/26 09:03:20;;;;;;;49.73;20.43;;;1.70;69.40;;;;;;5036148;28;20017;-82
2022/01/26 09:05:46;;;;;;;29.87;18.23;;;1.70;69.20;;;;;;5033775;28;20555;-82
2022/01/26 09:08:12;;;;;;;21.07;14.17;;;1.70;69.20;;;;;;5033472;28;20135;-82
2022/01/26 09:10:39;;;;;;;22.57;14.43;;;1.80;69.40;;;;;;5022331;28;20460;-82
2022/01/26 09:13:05;;;;;;;22.53;15.03;;;1.80;69.00;;;;;;5035419;28;20026;-82
2022/01/26 09:15:32;;;;;;;26.23;15.70;;;1.80;69.00;;;;;;5034058;28;20125;-82
2022/01/26 09:18:02;;;;;;;29.17;16.80;;;1.90;68.90;;;;;;5043643;28;20103;-82
2022/01/26 09:20:28;;;;;;;27.20;17.13;;;2.00;68.90;;;;;;5028024;28;20029;-82
2022/01/26 09:22:54;;;;;;;31.90;18.23;;;1.90;68.50;;;;;;5026807;28;20117;-82
2022/01/26 09:25:20;;;;;;;28.40;16.90;;;1.90;68.50;;;;;;5031728;28;20116;-82
2022/01/26 09:27:46;;;;;;;26.50;17.60;;;1.90;68.60;;;;;;5034796;28;20049;-82
2022/01/26 09:30:12;;;;;;;30.37;20.47;;;1.90;68.70;;;;;;5029459;28;20030;-82
2022/01/26 09:32:38;;;;;;;27.87;19.23;;;2.00;69.10;;;;;;5034153;28;20104;-82
2022/01/26 09:35:06;;;;;;;25.97;15.80;;;2.20;68.90;;;;;;5032154;28;20026;-82
2022/01/26 09:37:32;;;;;;;21.93;13.43;;;2.40;68.80;;;;;;5033901;28;20021;-83
2022/01/26 09:39:58;;;;;;;20.63;14.03;;;2.70;68.50;;;;;;5020713;28;20080;-83
2022/01/26 09:42:24;;;;;;;22.17;14.70;;;3.00;68.40;;;;;;5034716;28;20384;-83
2022/01/26 09:44:50;;;;;;;25.00;16.07;;;3.30;67.80;;;;;;5033755;28;20038;-83
2022/01/26 09:47:16;;;;;;;40.83;22.33;;;3.50;67.20;;;;;;5033947;28;20049;-83
2022/01/26 09:49:42;;;;;;;26.03;16.53;;;3.80;67.00;;;;;;5033747;28;20031;-83
2022/01/26 09:52:34;;;;;;;26.40;17.00;;;4.00;66.60;;;;;;5033122;28;20017;-83
2022/01/26 09:55:03;;;;;;;26.10;17.73;;;4.10;66.80;;;;;;5020685;28;20121;-83
2022/01/26 09:57:29;;;;;;;20.07;13.50;;;4.40;66.50;;;;;;5025199;28;20436;-83
2022/01/26 09:59:56;;;;;;;22.63;15.07;;;4.70;66.10;;;;;;5031610;28;20053;-83
2022/01/26 10:02:26;;;;;;;19.37;12.53;;;4.80;65.40;;;;;;5033195;28;20452;-83
2022/01/26 10:05:04;;;;;;;18.37;12.37;;;5.00;65.30;;;;;;5033161;28;20060;-83
2022/01/26 10:15:32;;;;;;;14.83;10.87;;;5.40;64.30;;;;;;5027960;28;20080;-84
2022/01/26 10:18:15;;;;;;;19.53;12.67;;;5.60;63.90;;;;;;5014144;28;20030;-84
2022/01/26 10:20:57;;;;;;;14.68;10.45;;;5.90;63.60;;;;;;5030739;28;20033;-84
2022/01/26 10:23:38;;;;;;;12.93;9.53;;;6.00;63.10;;;;;;5036902;28;20041;-84
2022/01/26 10:26:12;;;;;;;15.93;9.43;;;6.30;62.40;;;;;;5033870;28;20117;-84
2022/01/26 10:28:56;;;;;;;16.57;10.37;;;6.40;62.40;;;;;;5030461;28;20121;-84
2022/01/26 10:31:28;;;;;;;14.57;9.27;;;6.60;62.30;;;;;;5028497;28;20087;-84
2022/01/26 10:34:04;;;;;;;18.07;11.83;;;6.70;61.80;;;;;;5033878;28;20061;-84
2022/01/26 10:36:37;;;;;;;15.90;9.60;;;6.90;61.80;;;;;;5034009;28;20037;-84
2022/01/26 10:39:08;;;;;;;14.80;10.00;;;7.20;60.70;;;;;;5034246;28;20080;-84
2022/01/26 10:41:40;;;;;;;15.37;8.43;;;7.30;60.60;;;;;;5033833;28;20029;-84
2022/01/26 10:44:06;;;;;;;11.10;6.70;;;7.40;60.20;;;;;;5039727;28;20386;-84
2022/01/26 10:46:39;;;;;;;11.60;6.43;;;7.60;59.70;;;;;;5034224;28;20511;-84
2022/01/26 10:54:42;;;;;;;32.67;15.80;;;8.20;58.60;;;;;;5036240;28;20113;-85
2022/01/26 10:57:10;;;;;;;39.13;19.30;;;8.40;58.10;;;;;;5034159;28;20049;-84
2022/01/26 10:59:38;;;;;;;27.30;13.77;;;8.50;57.80;;;;;;5035422;28;20091;-84
2022/01/26 11:02:12;;;;;;;11.60;7.17;;;8.60;57.20;;;;;;5035829;28;20021;-84
2022/01/26 11:04:40;;;;;;;12.70;7.30;;;8.70;56.60;;;;;;5032219;28;20449;-84
2022/01/26 11:07:09;;;;;;;9.47;6.10;;;8.60;56.90;;;;;;5041637;28;20029;-84
2022/01/26 11:09:38;;;;;;;7.80;5.83;;;8.70;56.60;;;;;;5031810;28;20513;-84
2022/01/26 11:12:10;;;;;;;9.83;6.03;;;8.80;56.40;;;;;;5033536;28;20506;-84
2022/01/26 11:14:50;;;;;;;10.57;6.53;;;8.90;55.90;;;;;;5038290;28;20453;-84
2022/01/26 11:17:34;;;;;;;10.87;6.13;;;9.10;55.70;;;;;;5035755;28;20029;-85
2022/01/26 11:20:13;;;;;;;9.50;5.70;;;9.20;55.10;;;;;;5036739;28;20114;-85
2022/01/26 11:22:48;;;;;;;8.93;6.07;;;9.50;55.20;;;;;;5035269;28;20041;-85
2022/01/26 11:25:14;;;;;;;10.10;6.90;;;9.50;54.40;;;;;;5030790;28;20075;-85
2022/01/26 11:27:41;;;;;;;9.87;6.63;;;9.40;54.40;;;;;;5033600;28;20030;-85
2022/01/26 11:30:15;;;;;;;8.47;6.03;;;9.40;54.60;;;;;;5033952;28;20021;-85
2022/01/26 11:32:50;;;;;;;8.47;4.57;;;9.60;54.40;;;;;;5016430;28;20030;-85
2022/01/26 11:35:16;;;;;;;8.30;5.40;;;9.70;53.80;;;;;;5013364;28;20037;-85
2022/01/26 11:37:50;;;;;;;9.73;6.20;;;9.60;53.90;;;;;;5028397;28;20025;-85
2022/01/26 11:46:10;;;;;;;9.53;6.13;;;10.00;53.30;;;;;;5020082;28;20121;-85
2022/01/26 11:48:36;;;;;;;9.97;5.80;;;10.10;53.00;;;;;;5033205;28;20132;-85
2022/01/26 11:51:04;;;;;;;20.63;6.93;;;10.20;52.90;;;;;;5033209;28;20464;-85
2022/01/26 11:53:31;;;;;;;10.70;6.93;;;10.20;53.10;;;;;;5032979;28;20029;-85
2022/01/26 11:56:13;;;;;;;12.60;7.43;;;10.20;52.90;;;;;;5043042;28;20025;-85
2022/01/26 11:58:42;;;;;;;11.18;6.68;;;10.20;53.30;;;;;;5036666;28;20443;-85
2022/01/26 12:01:16;;;;;;;10.80;6.90;;;10.20;53.70;;;;;;5032520;28;20108;-85
2022/01/26 12:04:04;;;;;;;12.90;8.00;;;10.30;53.10;;;;;;5029304;28;20018;-85
2022/01/26 12:06:37;;;;;;;11.87;7.73;;;10.20;53.10;;;;;;5029144;28;20017;-85
2022/01/26 12:09:06;;;;;;;11.43;7.88;;;10.10;53.20;;;;;;5032656;28;20056;-85
2022/01/26 12:11:32;;;;;;;14.00;8.17;;;10.10;53.30;;;;;;5035908;28;20478;-85
2022/01/26 12:14:04;;;;;;;11.17;7.40;;;10.10;53.00;;;;;;5032770;28;20116;-85
2022/01/26 12:16:37;;;;;;;7.90;4.67;;;10.10;53.20;;;;;;5028985;28;20444;-85
2022/01/26 12:19:32;;;;;;;9.53;5.30;;;10.30;53.10;;;;;;5012220;28;20033;-84
2022/01/26 12:35:57;;;;;;;7.30;5.03;;;10.10;52.80;;;;;;5033400;28;20087;-85
2022/01/26 12:43:44;;;;;;;8.17;5.10;;;10.20;52.90;;;;;;5050858;28;20028;-85
2022/01/26 12:46:12;;;;;;;9.60;6.23;;;10.20;52.70;;;;;;5027895;28;20072;-85
2022/01/26 12:48:40;;;;;;;8.67;6.53;;;10.10;52.90;;;;;;5039906;28;20496;-85
2022/01/26 12:51:08;;;;;;;7.30;5.20;;;10.10;52.70;;;;;;5018774;28;20030;-85
2022/01/26 12:53:38;;;;;;;7.70;4.80;;;10.10;52.70;;;;;;5012057;28;20160;-85
2022/01/26 12:56:06;;;;;;;7.40;5.50;;;10.10;52.70;;;;;;5019958;28;20472;-85
2022/01/26 12:58:37;;;;;;;6.53;4.37;;;10.20;52.70;;;;;;5031807;28;20480;-85
2022/01/26 13:01:17;;;;;;;6.83;4.90;;;10.10;52.60;;;;;;5028183;28;20026;-85
2022/01/26 13:03:46;;;;;;;7.03;4.47;;;10.10;52.60;;;;;;5013192;28;20018;-85
2022/01/26 13:06:14;;;;;;;6.00;4.63;;;10.00;52.60;;;;;;5016550;28;20488;-85
2022/01/26 13:08:52;;;;;;;10.00;5.30;;;10.00;52.60;;;;;;5022732;28;20061;-85
2022/01/26 13:11:30;;;;;;;12.70;5.50;;;10.00;52.30;;;;;;5031244;28;20366;-85
2022/01/26 13:14:11;;;;;;;7.87;5.20;;;9.90;52.50;;;;;;5031433;28;20508;-85
2022/01/26 13:16:39;;;;;;;10.73;4.67;;;9.80;52.30;;;;;;5035079;28;20491;-85
2022/01/26 13:30:21;;;;;;;8.33;4.63;;;9.70;52.50;;;;;;5035817;28;20022;-85
2022/01/26 13:38:20;;;;;;;6.70;4.33;;;9.60;52.80;;;;;;5017719;28;20033;-85
2022/01/26 13:46:50;;;;;;;10.27;4.60;;;9.50;52.90;;;;;;5035447;28;20052;-84
2022/01/26 13:52:02;;;;;;;9.57;4.80;;;9.40;53.00;;;;;;5043386;28;20452;-84
2022/01/26 13:59:58;;;;;;;7.60;4.00;;;9.40;52.90;;;;;;5035420;28;20087;-84
2022/01/26 14:02:26;;;;;;;5.67;3.37;;;9.30;52.70;;;;;;5033535;28;20139;-85
2022/01/26 14:04:52;;;;;;;5.93;3.67;;;9.30;52.80;;;;;;5033606;28;20025;-84
2022/01/26 14:07:18;;;;;;;6.10;3.40;;;9.40;52.70;;;;;;5034903;28;20103;-84
2022/01/26 14:09:45;;;;;;;7.67;3.80;;;9.30;52.90;;;;;;5035208;28;20037;-84
2022/01/26 14:12:14;;;;;;;6.43;3.87;;;9.30;52.90;;;;;;5033651;28;20422;-84
2022/01/26 14:14:43;;;;;;;6.67;4.07;;;9.20;52.90;;;;;;5033770;28;20022;-85
2022/01/26 14:17:27;;;;;;;7.60;3.77;;;9.20;53.00;;;;;;5033743;28;20025;-84
2022/01/26 14:22:47;;;;;;;5.60;3.83;;;9.10;53.20;;;;;;5035040;28;20117;-84
2022/01/26 14:25:25;;;;;;;6.93;4.20;;;9.00;53.30;;;;;;5015126;28;20056;-85
2022/01/26 14:27:54;;;;;;;5.90;3.80;;;8.90;53.50;;;;;;5014285;28;20022;-84
2022/01/26 15:40:06;;;;;;;15.40;8.27;;;7.60;56.20;;;;;;5033708;28;20031;-83
2022/01/26 15:58:17;;;;;;;15.87;10.63;;;7.00;57.20;;;;;;5033246;28;20044;-83
2022/01/26 17:03:07;;;;;;;16.30;10.60;;;5.50;60.00;;;;;;5032705;28;20036;-83
2022/01/26 18:49:45;;;;;;;24.37;14.07;;;4.30;61.90;;;;;;5033944;28;20120;-83
2022/01/26 18:52:11;;;;;;;31.73;17.30;;;4.30;61.90;;;;;;5033245;28;20030;-83
2022/01/26 18:54:39;;;;;;;35.77;18.23;;;4.30;62.00;;;;;;5031026;28;20500;-83
2022/01/26 18:57:07;;;;;;;26.03;14.03;;;4.30;61.90;;;;;;5031929;28;20021;-83
2022/01/26 18:59:33;;;;;;;23.07;13.57;;;4.20;61.80;;;;;;5033549;28;20048;-83
2022/01/26 19:02:00;;;;;;;21.83;13.33;;;4.20;62.00;;;;;;5027741;28;20428;-83
2022/01/26 19:04:36;;;;;;;23.87;14.07;;;4.10;62.00;;;;;;5029928;28;20029;-83
2022/01/26 19:07:03;;;;;;;26.20;15.10;;;4.00;62.30;;;;;;5031528;28;20030;-83
2022/01/26 19:09:33;;;;;;;24.47;15.03;;;4.00;62.50;;;;;;5025825;28;20515;-83
2022/01/26 19:12:00;;;;;;;20.70;11.87;;;4.00;62.50;;;;;;5031560;28;20900;-83
2022/01/26 19:14:32;;;;;;;16.80;9.70;;;4.00;62.40;;;;;;5030199;28;20112;-83
2022/01/26 19:24:55;;;;;;;15.67;10.43;;;3.90;62.50;;;;;;5032446;28;20041;-83
2022/01/26 19:46:31;;;;;;;20.47;10.13;;;3.80;62.80;;;;;;5032549;28;20048;-84
2022/01/26 19:51:57;;;;;;;19.50;10.40;;;3.80;62.70;;;;;;5027401;28;20480;-85
2022/01/26 19:54:23;;;;;;;16.27;9.80;;;3.80;62.80;;;;;;5028904;28;20029;-85
2022/01/26 19:56:49;;;;;;;16.37;8.93;;;3.90;63.00;;;;;;5030049;28;20528;-85
2022/01/26 19:59:14;;;;;;;21.53;11.93;;;3.90;62.90;;;;;;5027862;28;20038;-85
2022/01/26 20:01:40;;;;;;;13.57;7.83;;;3.80;63.10;;;;;;5024241;28;20036;-84
2022/01/26 20:04:06;;;;;;;14.80;8.07;;;3.80;63.00;;;;;;5030634;28;20037;-84
2022/01/26 20:06:32;;;;;;;13.47;7.43;;;3.80;63.20;;;;;;5025646;28;20022;-84
2022/01/26 20:09:10;;;;;;;15.00;8.37;;;3.90;63.10;;;;;;5025888;28;20443;-84
2022/01/26 20:11:54;;;;;;;12.73;7.37;;;3.90;63.10;;;;;;5030153;28;20116;-84
2022/01/26 20:14:24;;;;;;;13.03;7.60;;;3.80;63.00;;;;;;5032195;28;20071;-84
2022/01/26 20:16:51;;;;;;;17.03;7.67;;;3.80;63.20;;;;;;5028152;28;20029;-84
2022/01/26 20:19:18;;;;;;;15.70;8.47;;;3.80;63.20;;;;;;5027734;28;20080;-85